Tiempo atmosférico en la estación meteorológica de Talarn, Lleida (799 m.)



Fecha
DESCASC
Temp. máxima en grados centígrados (hora)
DESCASC
Temp. mínima en grados centígrados (hora)
DESCASC
Temp. media en grados centígrados
DESCASC
Racha de viento máxima en m/sg (hora)
DESCASC
Velocidad máxima media en intervalos de 10 minutos(hora)
DESCASC
Precipitaciones diarias en mm
DESCASC
Precipitaciones de 00:00 a 06:00 en mm
DESCASC
Precipitaciones de 06:00 a 12:00 en mm
DESCASC
Precipitaciones de 12:00 a 18:00 en mm
DESCASC
Precipitaciones de 18:00 a 24:00 en mm
DESCASC
20-09-2020 24.9 (16:30) 11.6 (05:50) 18.3 10 (15:00) 6.11 (15:40) 0 0 0 0 0
19-09-2020 24.1 (14:50) 14.1 (23:59) 19.1 10 (17:50) 6.39 (17:50) 2.8 0.2 2.2 0.4 0
18-09-2020 21.5 (00:00) 16.1 (21:40) 18.8 6.67 (10:50) 3.89 (13:30) 19.4 0 0.6 5.2 13.6
17-09-2020 28.3 (16:20) 15.5 (00:00) 21.9 6.94 (14:10) 4.72 (14:10) 0 0 0 0 0
16-09-2020 31.6 (15:50) 15.7 (00:00) 23.7 8.33 (15:50) 5.83 (16:30) 1.8 0 0 1.6 0.2
15-09-2020 30.7 (16:10) 15.5 (00:00) 23.1 9.17 (15:50) 6.11 (17:50) 0 0 0 0 0
14-09-2020 31 (16:00) 15.1 (00:00) 23.1 7.5 (17:50) 5 (16:50) 0 0 0 0 0
13-09-2020 31.5 (15:40) 14.5 (00:00) 23 8.06 (15:50) 5 (15:50) 0 0 0 0 0
12-09-2020 30.6 (15:40) 14 (00:00) 22.3 8.89 (15:40) 6.11 (15:40) 0 0 0 0 0
11-09-2020 30.3 (16:40) 14.3 (00:00) 22.3 8.61 (18:20) 5 (17:30) 0 0 0 0 0
10-09-2020 27.2 (17:20) 12.8 (00:00) 20 6.11 (17:50) 3.89 (13:50) 0 0 0 0 0
09-09-2020 23.1 (16:10) 12.6 (00:00) 17.9 8.61 (17:30) 4.72 (17:30) 8.2 0.4 0.4 0.8 6.6
08-09-2020 27 (15:40) 11.9 (00:00) 19.4 12.22 (01:40) 6.94 (01:40) 1.4 0 0 0 1.4
07-09-2020 23.7 (15:30) 11.8 (07:40) 17.8 12.5 (21:40) 7.22 (21:00) 0 0 0 0 0
06-09-2020 27.3 (15:10) 15.6 (00:00) 21.4 12.5 (15:10) 8.06 (15:20) 0 0 0 0 0
05-09-2020 31.5 (16:40) 15.1 (00:00) 23.3 8.61 (18:10) 5.56 (16:10) 0 0 0 0 0
04-09-2020 30.2 (16:50) 12.6 (00:00) 21.4 6.94 (15:20) 3.89 (18:30) 0 0 0 0 0
03-09-2020 28.8 (17:10) 11.9 (00:00) 20.3 7.78 (15:50) 4.44 (18:20) 0 0 0 0 0
02-09-2020 26.4 (15:40) 12.2 (00:00) 19.3 9.17 (17:00) 5.83 (17:00) 0 0 0 0 0
01-09-2020 23.5 (18:20) 11.1 (00:00) 17.3 -- (--) -- (--) -- 0 0 -- 0
31-08-2020 24.7 (16:40) 8.1 (00:00) 16.4 -- (--) -- (--) 0 0 0 0 0
30-08-2020 24.1 (15:30) 8.5 (00:00) 16.3 -- (--) -- (--) 0.2 0 0 0 0.2
29-08-2020 23.6 (16:10) 13.4 (00:00) 18.5 -- (--) -- (--) 0.4 0.4 0 0 0
28-08-2020 27 (16:10) 18.4 (00:00) 22.7 -- (--) -- (--) 0.6 0 0 0 0.6
27-08-2020 34.1 (15:20) 19 (00:00) 26.5 -- (--) -- (--) 0 0 0 0 0
26-08-2020 34.1 (16:20) 18 (00:00) 26 9.17 (16:20) 5.56 (18:00) 0 0 0 0 0
25-08-2020 33.6 (15:50) 13.6 (00:00) 23.6 11.11 (16:50) 6.39 (16:50) 0 0 0 0 0
24-08-2020 29.6 (15:50) 14 (00:00) 21.8 11.11 (16:40) 6.67 (15:10) 0 0 0 0 0

Gráficas

Temp. máximas Temp. mínimas Temp. medias Precipitaciones Rachas de viento máximas Velocidades máximas media en intervalos de 10 minutos

Datos horarios

Fecha y hora oficial Temperatura (ºC) Velocidad del viento (km/h) Dirección del viento Racha (km/h) Dirección de racha Precipitación (mm) Presión (hPa) Tendencia (hPa) Humedad (%)
2020-09-22 23:00:00 15.4 2 Nordeste 8 Norte 0 922.2 1.2 63
2020-09-22 22:00:00 15.4 3 Norte 11 Noroeste 0 922 -- 63
2020-09-22 21:00:00 16.9 10 Noroeste 12 Noroeste 0 921.5 -- 58
2020-09-22 20:00:00 17.6 12 Noroeste 18 Noroeste 0 921 -- 55
2020-09-22 19:00:00 18.9 13 Norte 28 Sudoeste 0 920.8 -- 53
2020-09-22 18:00:00 22.6 17 Sudoeste 33 Sudoeste 0 920.6 -- 36
2020-09-22 17:00:00 22.9 20 Sur 33 Sur 0 920.9 -- 38
2020-09-22 16:00:00 20.9 9 Sur 19 Sur 0 921.6 -- 53
2020-09-22 15:00:00 20.5 13 Sur 20 Sur 0 922.4 -- 58
2020-09-22 14:00:00 19.8 9 Sur 17 Sur 0 923.1 -- 60
2020-09-22 13:00:00 18 6 Sur 14 Sur 0 923.7 -- 73
2020-09-22 12:00:00 14.7 6 Sudoeste 14 Sur 0 924.1 -- 96
2020-09-22 11:00:00 13.1 8 Sur 11 Sudoeste 0 924.2 -- 99
2020-09-22 10:00:00 11.9 5 Sudoeste 10 Sudoeste 0 923.9 -- 99
2020-09-22 09:00:00 11.6 4 Sudoeste 9 Sudoeste 0 923.8 -- 99
2020-09-22 08:00:00 10.7 3 Sudoeste 6 Sudoeste 0 923.7 -- 99
2020-09-22 07:00:00 11.4 4 Oeste 6 Sudoeste 0 923.6 -- 99
2020-09-22 06:00:00 11.2 3 Sudeste 9 Norte 0 923.7 -- 99
2020-09-22 05:00:00 12.1 3 Sudoeste 9 Norte 0 923.9 -- 97
2020-09-22 04:00:00 11.4 3 Noroeste 10 Norte 0 924.2 -- 94
2020-09-22 03:00:00 11.8 6 Norte 8 Norte 0 924.4 -- 96
2020-09-22 02:00:00 12.8 3 Oeste 5 Oeste 0 924.7 -- 95
2020-09-22 01:00:00 13 3 Sur 8 Norte 0 925 -- 93
2020-09-22 00:00:00 13.7 3 Sudeste 6 Oeste 0 925.2 -- 92
2020-09-21 23:00:00 13.5 4 Noroeste 6 Noroeste 0 925.1 -- 89
2020-09-21 22:00:00 13.6 5 Noroeste 12 Norte 0 925 -- 90
2020-09-21 21:00:00 14 4 Noroeste 7 Sudoeste 0 924.8 -- 94
2020-09-21 20:00:00 14.6 3 Noroeste 6 Norte 0 924.9 -- 94
2020-09-21 19:00:00 15.8 2 Sur 7 Oeste 0 924.6 -- 86
2020-09-21 18:00:00 15.7 4 Sudoeste 19 Nordeste 0.4 924.6 -- 88
2020-09-21 17:00:00 14.7 14 Nordeste 24 Norte 1.6 924.5 -- 89
2020-09-21 16:00:00 17.7 11 Nordeste 25 Sudeste 0 924.4 -- 65
2020-09-21 15:00:00 21.4 16 Sudeste 29 Sur 0 924 -- 59
2020-09-21 14:00:00 21 15 Sur 24 Sudeste 0 924.3 -- 56
2020-09-21 13:00:00 21.2 11 Sur 25 Sur 0 924.6 -- 55
2020-09-21 12:00:00 20.7 11 Sur 19 Sur 0 925 -- 57
2020-09-21 11:00:00 20.1 8 Sur 17 Sur 0 925.1 -- 62
2020-09-21 10:00:00 17.5 3 Sudoeste 7 Sur 0 924.8 -- 74
2020-09-21 09:00:00 16.6 3 Sur 5 Sur 0 924.8 -- 75
2020-09-21 08:00:00 15 3 Sudoeste 6 Norte 0 924.6 -- 79
2020-09-21 07:00:00 15.6 5 Norte 8 Noroeste 0 924.1 -- 75
2020-09-21 06:00:00 15.4 0 Calma 7 Norte 0 924.2 -- 77
2020-09-21 05:00:00 16 4 Nordeste 8 Nordeste 0 924.2 -- 72
2020-09-21 04:00:00 15.6 5 Noroeste 7 Noroeste 0 924.5 -- 76
2020-09-21 03:00:00 16.5 4 Sudoeste 6 Noroeste 0 924.7 -- 69
2020-09-21 02:00:00 16.7 7 Noroeste 11 Noroeste 0 924.8 -- 70
2020-09-21 01:00:00 16.8 4 Norte 10 Norte 0 924.8 -- 69
2020-09-21 00:00:00 17 9 Norte 10 Norte 0 924.8 -- 68
2020-09-20 23:00:00 17.6 3 Este 14 Norte 0 924.7 -- 65
2020-09-20 22:00:00 17.2 8 Norte 11 Norte 0 924.6 -- 64
2020-09-20 21:00:00 18.6 4 Sudeste 19 Oeste 0 924.3 -- 58
2020-09-20 20:00:00 19.8 13 Oeste 29 Sudoeste 0 923.5 -- 54
2020-09-20 19:00:00 20.8 13 Sudoeste 27 Sudoeste 0 923.1 -- 50
2020-09-20 18:00:00 22 13 Sudoeste 28 Sudoeste 0 923 -- 43
2020-09-20 17:00:00 24.1 17 Sudoeste 36 Sur 0 922.9 -- 35
2020-09-20 16:00:00 24.1 20 Oeste 33 Oeste 0 923 -- 38
2020-09-20 15:00:00 23.9 20 Sudoeste 36 Sudoeste 0 923.5 -- 38
2020-09-20 14:00:00 23.2 14 Sudoeste 29 Sudoeste 0 924 -- 39
2020-09-20 13:00:00 21.3 7 Sur 17 Sur 0 924.1 -- 50
2020-09-20 12:00:00 19.9 8 Sur 16 Sur 0 924.5 -- 56
2020-09-20 11:00:00 18.4 8 Sur 14 Sudeste 0 924.7 -- 64
2020-09-20 10:00:00 16.1 5 Sur 9 Sur 0 924.4 -- 75
2020-09-20 09:00:00 14.7 4 Sur 5 Sudoeste 0 924.3 -- 79
2020-09-20 08:00:00 12.3 2 Noroeste 10 Noroeste 0 924 -- 88
2020-09-20 07:00:00 12.4 4 Oeste 9 Norte 0 923.8 -- 86
2020-09-20 06:00:00 11.7 8 Norte 10 Noroeste 0 923.8 -- 87
2020-09-20 05:00:00 12 3 Nordeste 7 Sur 0 923.8 -- 85
2020-09-20 04:00:00 13.9 6 Sudoeste 12 Noroeste 0 923.7 -- 78
2020-09-20 03:00:00 13.5 4 Norte 7 Sudoeste 0 923.8 -- 81
2020-09-20 02:00:00 14 5 Norte 13 Noroeste 0 923.5 -- 77
2020-09-20 01:00:00 14.9 5 Noroeste 12 Noroeste 0 923.7 -- 74
2020-09-20 00:00:00 14.3 8 Norte 12 Sudeste 0 923.5 -- 79
2020-09-19 23:00:00 16.7 9 Oeste 25 Oeste 0 923.5 -- 63
2020-09-19 22:00:00 17.1 8 Noroeste 24 Noroeste 0 923.4 -- 63
2020-09-19 21:00:00 17.7 16 Noroeste 24 Noroeste 0 923.1 -- 63
2020-09-19 20:00:00 17.9 4 Oeste 19 Noroeste 0 922.5 -- 60
2020-09-19 19:00:00 20.4 12 Oeste 30 Oeste 0 922.2 -- 50
2020-09-19 18:00:00 21.7 23 Oeste 36 Oeste 0 922.1 -- 50
2020-09-19 17:00:00 21.1 15 Oeste 26 Oeste 0 921.8 -- 53
2020-09-19 16:00:00 23.7 17 Sudoeste 27 Sudoeste 0 921.9 -- 44
2020-09-19 15:00:00 22.9 16 Sudoeste 26 Sudoeste 0 922.4 -- 43
2020-09-19 14:00:00 22 12 Sur 27 Sudoeste 0.4 923.2 -- 55
2020-09-19 13:00:00 21.2 13 Sur 20 Sur 0 923.5 -- 60
2020-09-19 12:00:00 20.8 8 Sudoeste 15 Sur 0 924 -- 65
2020-09-19 11:00:00 18.2 3 Sur 13 Sur 0 924.3 -- 82
2020-09-19 10:00:00 17.3 4 Sur 11 Sudeste 0 924.1 -- 95
2020-09-19 09:00:00 16.1 5 Sur 11 Norte 0 924 -- 96
2020-09-19 08:00:00 15.6 11 Norte 13 Norte 0.2 923.8 -- 97
2020-09-19 07:00:00 15.9 3 Noroeste 10 Sur 2 923.4 -- 97
2020-09-19 06:00:00 16.3 5 Sudoeste 10 Sur 0 923.6 -- 94
2020-09-19 05:00:00 16.1 8 Norte 11 Norte 0.2 923.7 -- 94
2020-09-19 04:00:00 16 9 Norte 12 Norte 0 924.2 -- 95
2020-09-19 03:00:00 16.4 6 Norte 12 Norte 0 924.7 -- 92
2020-09-19 02:00:00 16.6 4 Este 13 Norte 0 924.9 -- 89
2020-09-19 01:00:00 16.6 4 Nordeste 11 Nordeste 0 925 -- 89
2020-09-19 00:00:00 17 7 Sudeste 13 Sudeste 0 925.5 -- 86
2020-09-18 23:00:00 16.4 9 Norte 15 Nordeste 1.8 924.9 -- 92
2020-09-18 22:00:00 16.5 5 Oeste 14 Norte 7.2 925.7 -- 91
2020-09-18 21:00:00 17.3 6 Sudeste 24 Sur 4.4 925.4 -- 87
2020-09-18 20:00:00 17.9 4 Sudoeste 22 Sur 0.2 924.8 -- 81
2020-09-18 19:00:00 19.2 10 Sur 18 Sur 0 924.3 -- 75
2020-09-18 18:00:00 19.4 5 Sudeste 13 Sur 0 924.1 -- 76
2020-09-18 17:00:00 19.8 2 Nordeste 9 Nordeste 0 924.9 -- 75
2020-09-18 16:00:00 19.1 8 Sur 14 Sur 0 925.8 -- 85
2020-09-18 15:00:00 19.9 5 Norte 14 Nordeste 0 925.9 -- 78
2020-09-18 14:00:00 17.3 3 Este 21 Sur 3.4 926.8 -- 94
2020-09-18 13:00:00 16.9 6 Nordeste 11 Nordeste 1.8 926.7 -- 86
2020-09-18 12:00:00 18.3 6 Sur 21 Sudeste 0.6 927.2 -- 76
2020-09-18 11:00:00 20.1 10 Sur 24 Sudoeste 0 926.7 -- 53
2020-09-18 10:00:00 20.7 6 Este 17 Nordeste 0 926.2 -- 46
2020-09-18 09:00:00 20.1 6 Nordeste 20 Norte 0 926 -- 45
2020-09-18 08:00:00 18.4 9 Norte 14 Norte 0 925.5 -- 54
2020-09-18 07:00:00 20.1 7 Nordeste 12 Nordeste 0 925 -- 42
2020-09-18 06:00:00 19.4 7 Norte 10 Norte 0 924.8 -- 44
2020-09-18 05:00:00 19.5 0 Calma 10 Norte 0 924.7 -- 45
2020-09-18 04:00:00 20.1 5 Nordeste 13 Norte 0 925.1 -- 41
2020-09-18 03:00:00 19.4 3 Norte 15 Este 0 925.2 -- 46
2020-09-18 02:00:00 20.2 6 Este 19 Sudeste 0 925.4 -- 44
2020-09-18 01:00:00 20.5 5 Este 12 Este 0 925.8 -- 47
2020-09-18 00:00:00 21.5 3 Sudeste 11 Norte 0 925.7 -- 44
2020-09-17 23:00:00 21.5 6 Nordeste 12 Norte 0 925.3 -- 49
2020-09-17 22:00:00 22 5 Este 11 Este 0 925.7 -- 46
2020-09-17 21:00:00 22.5 4 Este 12 Este 0 925 -- 39
2020-09-17 20:00:00 22.7 4 Nordeste 5 Nordeste 0 924.8 -- 42
2020-09-17 19:00:00 25.1 4 Sudeste 6 Sudeste 0 924.7 -- 33
2020-09-17 18:00:00 25.3 0 Calma 10 Sur 0 925 -- 34
2020-09-17 17:00:00 26.1 8 Sur 19 Sur 0 925 -- 32
2020-09-17 16:00:00 26.9 13 Sur 20 Sur 0 925.3 -- 31
2020-09-17 15:00:00 26.6 8 Sur 25 Sur 0 925.8 -- 32
2020-09-17 14:00:00 26.9 10 Sur 17 Sudeste 0 926.1 -- 32
2020-09-17 13:00:00 26.6 4 Sur 14 Sur 0 926.2 -- 33
2020-09-17 12:00:00 24.9 6 Sur 13 Sur 0 926.5 -- 49
2020-09-17 11:00:00 20.6 5 Sur 13 Sudoeste 0 926.8 -- 63
2020-09-17 10:00:00 20.3 4 Sur 8 Sur 0 926.7 -- 63
2020-09-17 09:00:00 18.3 2 Norte 6 Oeste 0 926.8 -- 68
2020-09-17 08:00:00 16.5 2 Nordeste 7 Norte 0 926.8 -- 72
2020-09-17 07:00:00 16.8 3 Sur 5 Sur 0 926.8 -- 74
2020-09-17 06:00:00 17.1 2 Sur 6 Nordeste 0 926.8 -- 73
2020-09-17 05:00:00 17.1 4 Oeste 9 Noroeste 0 926.8 -- 74
2020-09-17 04:00:00 18 2 Noroeste 7 Oeste 0 927.1 -- 69
2020-09-17 03:00:00 18.7 4 Sur 10 Nordeste 0 927.4 -- 67
2020-09-17 02:00:00 19.3 0 Calma 10 Norte 0 927.7 -- 66
2020-09-17 01:00:00 19.2 4 Norte 7 Norte 0 927.9 -- 67
2020-09-17 00:00:00 19.4 5 Oeste 8 Noroeste 0 928 -- 69
2020-09-16 23:00:00 19.5 5 Noroeste 10 Norte 0 928.1 -- 68
2020-09-16 22:00:00 21.1 5 Norte 17 Norte 0 927.8 -- 61
2020-09-16 21:00:00 22.2 6 Este 21 Este 0 927.5 -- 60
2020-09-16 20:00:00 20.7 13 Norte 21 Norte 0 926.3 -- 64
2020-09-16 19:00:00 22.1 7 Noroeste 17 Norte 0.2 926.4 -- 69
2020-09-16 18:00:00 21.6 16 Norte 22 Nordeste 1.6 926 -- 70
2020-09-16 17:00:00 29.6 12 Sur 30 Sur 0 925.9 -- 27
2020-09-16 16:00:00 31 15 Sur 30 Sur 0 926.4 -- 23
2020-09-16 15:00:00 31 11 Sur 23 Sur 0 927.1 -- 22
2020-09-16 14:00:00 29.3 12 Sur 19 Sur 0 927.8 -- 25
2020-09-16 13:00:00 26.8 8 Sur 17 Sur 0 928.4 -- 33
2020-09-16 12:00:00 23.6 6 Sur 12 Sur 0 928.8 -- 43
2020-09-16 11:00:00 22 6 Sur 11 Sur 0 929.2 -- 49
2020-09-16 10:00:00 20 4 Sur 7 Sur 0 929.3 -- 54
2020-09-16 09:00:00 18.1 3 Nordeste 4 Oeste 0 929.3 -- 61
2020-09-16 08:00:00 16.6 2 Noroeste 4 Oeste 0 929.2 -- 65
2020-09-16 07:00:00 15.9 0 Calma 5 Nordeste 0 928.9 -- 68
2020-09-16 06:00:00 16.7 2 Noroeste 9 Oeste 0 928.9 -- 64
2020-09-16 05:00:00 17.5 2 Este 5 Norte 0 929 -- 60
2020-09-16 04:00:00 17.9 3 Sudoeste 7 Sudeste 0 929.3 -- 59
2020-09-16 03:00:00 17.9 4 Nordeste 7 Sudoeste 0 929.5 -- 59
2020-09-16 02:00:00 19.3 4 Oeste 7 Noroeste 0 929.6 -- 54
2020-09-16 01:00:00 20.3 4 Oeste 17 Noroeste 0 929.8 -- 49
2020-09-16 00:00:00 20.5 12 Noroeste 15 Noroeste 0 929.9 -- 47
2020-09-15 23:00:00 21.6 4 Sudoeste 13 Norte 0 929.9 -- 44
2020-09-15 22:00:00 20.6 8 Noroeste 18 Oeste 0 929.5 -- 47
2020-09-15 21:00:00 22.3 11 Oeste 15 Oeste 0 929 -- 41
2020-09-15 20:00:00 24.7 10 Sudoeste 28 Sudoeste 0 928.4 -- 34
2020-09-15 19:00:00 27.1 19 Sudoeste 27 Sudoeste 0 928 -- 29
2020-09-15 18:00:00 29.2 21 Sur 32 Sur 0 927.8 -- 26
2020-09-15 17:00:00 29.8 21 Sur 31 Sur 0 927.9 -- 24
2020-09-15 16:00:00 30.3 14 Sudoeste 33 Sudoeste 0 928.5 -- 21
2020-09-15 15:00:00 29.1 12 Sudoeste 24 Sudoeste 0 928.9 -- 23
2020-09-15 14:00:00 27.3 12 Sudoeste 30 Sudoeste 0 929.8 -- 28
2020-09-15 13:00:00 25 13 Sur 21 Sur 0 930.2 -- 33
2020-09-15 12:00:00 23.2 6 Sur 16 Sur 0 930.9 -- 37
2020-09-15 11:00:00 19.8 7 Sur 11 Sur 0 931.1 -- 51
2020-09-15 10:00:00 18.5 6 Sur 12 Sur 0 930.5 -- 57
2020-09-15 09:00:00 17.7 5 Oeste 9 Sudoeste 0 930.1 -- 58
2020-09-15 08:00:00 16.9 4 Sur 11 Noroeste 0 930.4 -- 57
2020-09-15 07:00:00 16.2 9 Oeste 17 Norte 0 930.5 -- 59
2020-09-15 06:00:00 16.8 13 Norte 17 Norte 0 930.5 -- 55
2020-09-15 05:00:00 17.1 4 Sudoeste 14 Nordeste 0 930.7 -- 55
2020-09-15 04:00:00 18.2 5 Oeste 15 Norte 0 931.3 -- 52
2020-09-15 03:00:00 18.3 8 Noroeste 14 Noroeste 0 931.6 -- 51
2020-09-15 02:00:00 19 5 Oeste 9 Oeste 0 931.8 -- 50
2020-09-15 01:00:00 19.3 6 Oeste 12 Oeste 0 931.5 -- 48
2020-09-15 00:00:00 20.6 4 Sudoeste 8 Norte 0 931.4 -- 41
2020-09-14 23:00:00 19.1 6 Norte 10 Norte 0 931.3 -- 44
2020-09-14 22:00:00 21.2 7 Nordeste 16 Norte 0 931.3 -- 40
2020-09-14 21:00:00 22.2 5 Sudeste 20 Sur 0 930.9 -- 40
2020-09-14 20:00:00 23.8 9 Sur 23 Sur 0 930.2 -- 36
2020-09-14 19:00:00 27.3 8 Sur 20 Sur 0 929.9 -- 23
2020-09-14 18:00:00 29.3 16 Sur 27 Sur 0 930 -- 21
2020-09-14 17:00:00 28.2 16 Sur 26 Sur 0 930.4 -- 24
2020-09-14 16:00:00 30.9 14 Sur 26 Sur 0 930.8 -- 20
2020-09-14 15:00:00 29.9 16 Sur 27 Sur 0 931.5 -- 21
2020-09-14 14:00:00 29.3 14 Sur 25 Sur 0 932.1 -- 22
2020-09-14 13:00:00 27.6 9 Sur 19 Sur 0 932.5 -- 26
2020-09-14 12:00:00 25.8 6 Sur 13 Sur 0 933 -- 35
2020-09-14 11:00:00 22.9 5 Sur 11 Sur 0 933.2 -- 45
2020-09-14 10:00:00 20.5 4 Sur 8 Sur 0 933.3 -- 50
2020-09-14 09:00:00 19.2 3 Sur 5 Sur 0 933.1 -- 53
2020-09-14 08:00:00 16.5 3 Oeste 5 Norte 0 932.8 -- 63
2020-09-14 07:00:00 15.5 5 Norte 8 Noroeste 0 932.4 -- 67
2020-09-14 06:00:00 16.8 3 Sudoeste 8 Nordeste 0 932.3 -- 61
2020-09-14 05:00:00 17.4 5 Norte 7 Noroeste 0 932.4 -- 60
2020-09-14 04:00:00 19 2 Noroeste 9 Norte 0 932.6 -- 54
2020-09-14 03:00:00 19.4 3 Sudoeste 12 Norte 0 933 -- 51
2020-09-14 02:00:00 20.2 7 Noroeste 14 Norte 0 933.2 -- 47
2020-09-14 01:00:00 19.9 5 Norte 12 Norte 0 933.2 -- 48
2020-09-14 00:00:00 20.2 6 Norte 12 Norte 0 933.2 -- 48
2020-09-13 23:00:00 21 9 Norte 14 Norte 0 933.1 -- 42
2020-09-13 22:00:00 21.9 6 Este 13 Norte 0 932.8 -- 36
2020-09-13 21:00:00 21.5 6 Noroeste 12 Noroeste 0 932 -- 36
2020-09-13 20:00:00 23.4 4 Noroeste 16 Sur 0 931.5 -- 32
2020-09-13 19:00:00 27.8 12 Sur 24 Sur 0 931.2 -- 25
2020-09-13 18:00:00 29.6 15 Sur 27 Sur 0 931.1 -- 25
2020-09-13 17:00:00 30.2 11 Sur 27 Sur 0 931.2 -- 22
2020-09-13 16:00:00 30.7 12 Sudoeste 29 Sudoeste 0 931.4 -- 22
2020-09-13 15:00:00 30.1 11 Sur 24 Sur 0 931.7 -- 22
2020-09-13 14:00:00 29 10 Sur 21 Sur 0 932.2 -- 24
2020-09-13 13:00:00 27.2 8 Sur 17 Sur 0 932.7 -- 29
2020-09-13 12:00:00 25 7 Sur 14 Sur 0 933.1 -- 41
2020-09-13 11:00:00 22.1 7 Sur 12 Sudoeste 0 933.2 -- 50
2020-09-13 10:00:00 20.3 5 Sur 9 Sur 0 932.9 -- 55
2020-09-13 09:00:00 19 3 Sudeste 5 Sur 0 932.5 -- 60
2020-09-13 08:00:00 16.1 0 Calma 6 Sur 0 932 -- 67
2020-09-13 07:00:00 15.7 4 Noroeste 8 Noroeste 0 931.6 -- 68
2020-09-13 06:00:00 16.3 3 Noroeste 7 Norte 0 931.2 -- 66
2020-09-13 05:00:00 16.2 4 Norte 6 Norte 0 931.4 -- 68
2020-09-13 04:00:00 18 2 Sudeste 6 Norte 0 931.3 -- 63
2020-09-13 03:00:00 18.4 0 Calma 10 Norte 0 931.2 -- 62
2020-09-13 02:00:00 17.9 7 Norte 9 Norte 0 931.3 -- 64
2020-09-13 01:00:00 18.5 5 Noroeste 9 Noroeste 0 931.3 -- 62
2020-09-13 00:00:00 19.8 4 Oeste 11 Sudeste 0 931 -- 57
2020-09-12 23:00:00 21.2 3 Oeste 13 Sudoeste 0 930.8 -- 51
2020-09-12 22:00:00 21.7 5 Sur 12 Sudoeste 0 929.9 -- 41
2020-09-12 21:00:00 22.8 4 Norte 18 Oeste 0 928.9 -- 35
2020-09-12 20:00:00 25.1 10 Oeste 13 Oeste 0 928 -- 28
2020-09-12 19:00:00 27.2 11 Sudoeste 26 Sudoeste 0 927.6 -- 27
2020-09-12 18:00:00 29 14 Sudoeste 28 Sudoeste 0 927.5 -- 26
2020-09-12 17:00:00 30.1 15 Sudoeste 31 Sur 0 927.3 -- 26
2020-09-12 16:00:00 29.8 19 Sur 32 Sur 0 927.2 -- 27
2020-09-12 15:00:00 29.5 13 Sur 26 Sur 0 927.5 -- 26
2020-09-12 14:00:00 27.6 9 Sur 22 Sur 0 928 -- 32
2020-09-12 13:00:00 26.3 10 Sur 18 Sur 0 928.2 -- 36
2020-09-12 12:00:00 23.9 8 Sur 15 Sur 0 928.4 -- 43
2020-09-12 11:00:00 21.8 6 Sur 14 Sudeste 0 928.4 -- 53
2020-09-12 10:00:00 19.7 4 Sur 8 Sudoeste 0 928.2 -- 61
2020-09-12 09:00:00 18.6 3 Sur 7 Sur 0 928 -- 63
2020-09-12 08:00:00 15.3 3 Sudoeste 6 Sudeste 0 927.4 -- 75
2020-09-12 07:00:00 15.2 2 Sudeste 4 Nordeste 0 926.8 -- 73
2020-09-12 06:00:00 14.8 2 Norte 9 Noroeste 0 926.6 -- 75
2020-09-12 05:00:00 15.6 2 Noroeste 6 Sudoeste 0 926.5 -- 73
2020-09-12 04:00:00 16.6 2 Oeste 10 Noroeste 0 926.3 -- 68
2020-09-12 03:00:00 16.3 3 Noroeste 9 Noroeste 0 926.1 -- 69
2020-09-12 02:00:00 17.1 5 Norte 8 Noroeste 0 926.1 -- 67
2020-09-12 01:00:00 18.3 6 Noroeste 10 Sudoeste 0 926 -- 63
2020-09-12 00:00:00 18.1 7 Noroeste 14 Noroeste 0 926.1 -- 64
2020-09-11 23:00:00 19.7 6 Oeste 13 Sudoeste 0 925.9 -- 59
2020-09-11 22:00:00 20.9 6 Sudoeste 15 Sudeste 0 925.5 -- 51
2020-09-11 21:00:00 21.5 4 Este 8 Nordeste 0 924.5 -- 43
2020-09-11 20:00:00 23.4 3 Sur 19 Sudoeste 0 923.7 -- 37
2020-09-11 19:00:00 25.9 18 Sur 31 Sudoeste 0 923.1 -- 31
2020-09-11 18:00:00 26.4 18 Sudoeste 27 Sudoeste 0 923 -- 31
2020-09-11 17:00:00 29.1 12 Sudeste 24 Sudoeste 0 922.9 -- 23
2020-09-11 16:00:00 29.3 10 Sudoeste 24 Sudoeste 0 923.1 -- 23
2020-09-11 15:00:00 28.2 9 Sudeste 23 Sur 0 923.5 -- 25
2020-09-11 14:00:00 28.7 15 Sur 27 Sudoeste 0 923.8 -- 25
2020-09-11 13:00:00 26.7 7 Sur 18 Sur 0 924.2 -- 29
2020-09-11 12:00:00 24.1 6 Sur 12 Sur 0 924.6 -- 42
2020-09-11 11:00:00 21.8 8 Sur 13 Sur 0 924.7 -- 50
2020-09-11 10:00:00 19.5 4 Sudeste 8 Sur 0 924.6 -- 60
2020-09-11 09:00:00 17.9 3 Sur 6 Sur 0 924.4 -- 60
2020-09-11 08:00:00 15.6 2 Sudoeste 7 Sudoeste 0 924.2 -- 65
2020-09-11 07:00:00 14.7 4 Oeste 10 Norte 0 924.3 -- 69
2020-09-11 06:00:00 15.2 4 Norte 11 Noroeste 0 924.3 -- 62
2020-09-11 05:00:00 15 3 Oeste 12 Norte 0 924.2 -- 67
2020-09-11 04:00:00 15.7 9 Norte 12 Noroeste 0 924.4 -- 58
2020-09-11 03:00:00 16.3 5 Oeste 12 Noroeste 0 924.7 -- 58
2020-09-11 02:00:00 16.5 4 Nordeste 13 Noroeste 0 925.2 -- 62
2020-09-11 01:00:00 16.9 11 Norte 15 Noroeste 0 925.5 -- 54
2020-09-11 00:00:00 17.8 9 Norte 16 Norte 0 925.7 -- 52
2020-09-10 23:00:00 17.6 5 Nordeste 11 Norte 0 926 -- 54
2020-09-10 22:00:00 18.7 6 Oeste 13 Oeste 0 926 -- 63
2020-09-10 21:00:00 19.1 5 Noroeste 14 Sur 0 925.5 -- 62
2020-09-10 20:00:00 22.1 6 Este 21 Este 0 924.7 -- 37
2020-09-10 19:00:00 23.9 11 Este 18 Este 0 924.6 -- 32
2020-09-10 18:00:00 25.4 7 Este 22 Este 0 924.5 -- 33
2020-09-10 17:00:00 26 4 Oeste 11 Sudoeste 0 924.8 -- 33
2020-09-10 16:00:00 24.6 4 Sur 17 Sudoeste 0 925.3 -- 39
2020-09-10 15:00:00 24.2 6 Sudoeste 17 Sur 0 925.8 -- 46
2020-09-10 14:00:00 23.4 9 Sur 22 Sur 0 926.6 -- 54
2020-09-10 13:00:00 21 4 Sudoeste 10 Sur 0 927 -- 70
2020-09-10 12:00:00 17.9 3 Sur 10 Sur 0 927.4 -- 83
2020-09-10 11:00:00 17 4 Sudoeste 11 Sur 0 927.5 -- 86
2020-09-10 10:00:00 14.8 2 Oeste 6 Sudeste 0 927.5 -- 97
2020-09-10 09:00:00 14 3 Sudeste 8 Nordeste 0 927.6 -- 96
2020-09-10 08:00:00 13.8 3 Este 10 Norte 0 927.2 -- 97
2020-09-10 07:00:00 13.7 5 Noroeste 10 Noroeste 0 927.4 -- 97
2020-09-10 06:00:00 13.3 5 Noroeste 9 Norte 0 927.5 -- 97
2020-09-10 05:00:00 13 6 Norte 8 Norte 0 928 -- 97
2020-09-10 04:00:00 13 5 Norte 8 Norte 0 927.9 -- 95
2020-09-10 03:00:00 13 2 Noroeste 6 Noroeste 0 928.3 -- 95
2020-09-10 02:00:00 13.7 0 Calma 7 Sur 0 928.5 -- 94
2020-09-10 01:00:00 13.4 5 Norte 9 Noroeste 0 929.1 -- 94
2020-09-10 00:00:00 14.6 3 Sur 5 Sur 0 929.4 -- 88
2020-09-09 23:00:00 14.3 4 Oeste 11 Norte 0 929.5 -- 88
2020-09-09 22:00:00 14.2 6 Noroeste 9 Noroeste 0 929.4 -- 89
2020-09-09 21:00:00 14.8 8 Norte 18 Noroeste 2.2 929.3 -- 89
2020-09-09 20:00:00 14.6 12 Noroeste 15 Noroeste 4.4 928.9 -- 91
2020-09-09 19:00:00 16.9 10 Sudoeste 21 Sudoeste 0 928.8 -- 79
2020-09-09 18:00:00 19.6 13 Sudoeste 31 Sudeste 0 928.3 -- 64
2020-09-09 17:00:00 19.6 7 Noroeste 19 Noroeste 0.8 928.1 -- 69
2020-09-09 16:00:00 22.3 11 Norte 22 Norte 0 928.2 -- 44
2020-09-09 15:00:00 21.7 8 Sur 20 Sur 0 928.5 -- 54
2020-09-09 14:00:00 20.9 9 Sur 18 Sur 0 929.1 -- 64
2020-09-09 13:00:00 18.2 8 Sur 15 Sur 0 929.8 -- 78
2020-09-09 12:00:00 16 7 Sudoeste 10 Sudoeste 0 930.4 -- 90
2020-09-09 11:00:00 15.4 6 Sur 11 Sur 0 930.6 -- 95
2020-09-09 10:00:00 14.9 5 Sudoeste 8 Sudoeste 0 930.5 -- 95
2020-09-09 09:00:00 14 3 Sur 9 Sur 0 930.2 -- 96
2020-09-09 08:00:00 13.3 2 Sur 11 Noroeste 0 930.1 -- 96
2020-09-09 07:00:00 13.4 9 Noroeste 13 Norte 0.4 929.9 -- 93
2020-09-09 06:00:00 13.2 10 Norte 13 Norte 0.2 930.2 -- 96
2020-09-09 05:00:00 13.3 3 Este 8 Noroeste 0 930.5 -- 96
2020-09-09 04:00:00 13.5 9 Noroeste 13 Norte 0.2 930.5 -- 88
2020-09-09 03:00:00 12.7 0 Calma 9 Noroeste 0 930.7 -- 88
2020-09-09 02:00:00 13.4 3 Oeste 8 Noroeste 0 931 -- 90
2020-09-09 01:00:00 13.1 2 Nordeste 6 Noroeste 0 931.6 -- 84
2020-09-09 00:00:00 14.2 2 Oeste 13 Noroeste 0 932 -- 87
2020-09-08 23:00:00 14 2 Norte 11 Norte 0 931.9 -- 88
2020-09-08 22:00:00 15 4 Oeste 23 Noroeste 0.8 931.8 -- 88
2020-09-08 21:00:00 16.6 11 Sur 25 Sudeste 0.6 932.3 -- 76
2020-09-08 20:00:00 19.4 14 Sudeste 28 Sudeste 0 930.9 -- 52
2020-09-08 19:00:00 21.3 8 Sur 18 Sudeste 0 930.9 -- 49
2020-09-08 18:00:00 22.7 10 Sur 26 Sudeste 0 930.5 -- 34
2020-09-08 17:00:00 23.5 10 Sur 25 Sur 0 930.3 -- 29
2020-09-08 16:00:00 25.5 14 Sur 26 Sur 0 930.1 -- 24
2020-09-08 15:00:00 26.1 16 Sur 28 Sur 0 930.2 -- 22
2020-09-08 14:00:00 25.1 11 Sur 27 Sur 0 930.7 -- 24
2020-09-08 13:00:00 23.7 10 Sur 20 Sur 0 931.2 -- 26
2020-09-08 12:00:00 21.4 8 Sur 17 Sur 0 931.5 -- 29
2020-09-08 11:00:00 18.8 6 Sur 14 Sur 0 931.9 -- 34
2020-09-08 10:00:00 16.9 5 Sur 13 Sur 0 931.7 -- 38
2020-09-08 09:00:00 15.2 5 Sur 8 Sur 0 931.5 -- 42
2020-09-08 08:00:00 13 5 Sudoeste 8 Sudoeste 0 931.3 -- 46
2020-09-08 07:00:00 12.4 3 Oeste 19 Nordeste 0 930.7 -- 47
2020-09-08 06:00:00 14 10 Nordeste 18 Nordeste 0 930.8 -- 42
2020-09-08 05:00:00 14.4 12 Nordeste 30 Nordeste 0 930.5 -- 39
2020-09-08 04:00:00 14.5 10 Nordeste 28 Nordeste 0 930.5 -- 38
2020-09-08 03:00:00 15 17 Nordeste 39 Nordeste 0 930.5 -- 36
2020-09-08 02:00:00 15.3 24 Nordeste 44 Nordeste 0 930.4 -- 35
2020-09-08 01:00:00 15.5 21 Nordeste 36 Este 0 930.3 -- 34
2020-09-08 00:00:00 15.5 13 Nordeste 35 Nordeste 0 930.6 -- 33
2020-09-07 23:00:00 16.1 20 Nordeste 42 Nordeste 0 930.2 -- 31
2020-09-07 22:00:00 15.8 14 Nordeste 45 Nordeste 0 929.9 -- 32
2020-09-07 21:00:00 16.6 26 Nordeste 42 Nordeste 0 928.8 -- 30
2020-09-07 20:00:00 17.3 18 Nordeste 36 Nordeste 0 927.6 -- 30
2020-09-07 19:00:00 18.7 22 Nordeste 39 Nordeste 0 926.7 -- 28
2020-09-07 18:00:00 21.3 18 Este 35 Este 0 926.1 -- 22
2020-09-07 17:00:00 22.6 15 Este 32 Este 0 925.7 -- 21
2020-09-07 16:00:00 22.9 19 Este 34 Este 0 925.8 -- 22
2020-09-07 15:00:00 22.9 14 Este 31 Este 0 926 -- 23
2020-09-07 14:00:00 22.2 18 Este 33 Este 0 926.2 -- 24
2020-09-07 13:00:00 22 15 Este 32 Este 0 926.4 -- 24
2020-09-07 12:00:00 20.8 16 Este 30 Sudeste 0 926.4 -- 26
2020-09-07 11:00:00 20.6 9 Sudeste 27 Este 0 926.4 -- 28
2020-09-07 10:00:00 18.8 8 Este 20 Este 0 926.1 -- 45
2020-09-07 09:00:00 16.5 5 Sudeste 17 Nordeste 0 925.6 -- 40
2020-09-07 08:00:00 13.3 4 Norte 11 Nordeste 0 925.2 -- 71
2020-09-07 07:00:00 13.3 0 Calma 5 Sur 0 924.9 -- 71
2020-09-07 06:00:00 14 4 Sudoeste 6 Norte 0 924.4 -- 67
2020-09-07 05:00:00 13.2 3 Nordeste 10 Este 0 924.4 -- 71
2020-09-07 04:00:00 13.3 3 Nordeste 10 Norte 0 924.2 -- 66
2020-09-07 03:00:00 15.2 3 Sudeste 13 Este 0 924.1 -- 59
2020-09-07 02:00:00 17.4 9 Nordeste 31 Nordeste 0 924.3 -- 50
2020-09-07 01:00:00 18 19 Nordeste 31 Nordeste 0 924.4 -- 49
2020-09-07 00:00:00 18.3 14 Nordeste 23 Nordeste 0 924.5 -- 50
2020-09-06 23:00:00 18.5 8 Nordeste 15 Este 0 924.5 -- 53
2020-09-06 22:00:00 19.6 9 Nordeste 15 Nordeste 0 924.3 -- 50
2020-09-06 21:00:00 20.6 12 Noroeste 24 Oeste 0 924 -- 46
2020-09-06 20:00:00 22.4 9 Sudoeste 28 Sudoeste 0 923.3 -- 42
2020-09-06 19:00:00 24.5 24 Sudoeste 37 Sudoeste 0 923 -- 36
2020-09-06 18:00:00 26.2 22 Oeste 41 Sudoeste 0 923.1 -- 33
2020-09-06 17:00:00 26.9 25 Sudoeste 43 Sudoeste 0 923.3 -- 35
2020-09-06 16:00:00 27 26 Sudoeste 45 Sudoeste 0 923.7 -- 37
2020-09-06 15:00:00 27.1 24 Sudoeste 42 Sudoeste 0 924.1 -- 39
2020-09-06 14:00:00 26.4 24 Sudoeste 41 Sur 0 924.6 -- 39
2020-09-06 13:00:00 26.1 18 Sur 26 Sur 0 925.1 -- 41
2020-09-06 12:00:00 24.3 12 Sur 20 Sudeste 0 925.5 -- 49
2020-09-06 11:00:00 22.9 7 Sur 15 Sudeste 0 925.9 -- 54
2020-09-06 10:00:00 20.8 5 Sur 9 Sur 0 926 -- 61
2020-09-06 09:00:00 19.3 4 Sur 7 Sur 0 926.2 -- 69
2020-09-06 08:00:00 16.9 0 Calma 7 Norte 0 926.2 -- 81
2020-09-06 07:00:00 15.8 6 Norte 9 Norte 0 926.1 -- 82
2020-09-06 06:00:00 17.5 2 Sur 6 Noroeste 0 926.2 -- 75
2020-09-06 05:00:00 17 4 Nordeste 6 Este 0 926.6 -- 78
2020-09-06 04:00:00 18.4 0 Calma 8 Sudoeste 0 926.8 -- 72
2020-09-06 03:00:00 18.3 5 Norte 12 Noroeste 0 927 -- 69
2020-09-06 02:00:00 19.1 9 Noroeste 15 Norte 0 927.3 -- 66
2020-09-06 01:00:00 19.6 7 Norte 11 Oeste 0 927.5 -- 70
2020-09-06 00:00:00 21.2 11 Sudoeste 18 Oeste 0 927.5 -- 62
2020-09-05 23:00:00 22 6 Noroeste 9 Noroeste 0 927.4 -- 48
2020-09-05 22:00:00 21.7 5 Norte 9 Norte 0 927.4 -- 49
2020-09-05 21:00:00 23.8 6 Sur 17 Sur 0 927 -- 43
2020-09-05 20:00:00 25.1 9 Sudeste 25 Sudoeste 0 926.4 -- 39
2020-09-05 19:00:00 28.4 16 Sudoeste 31 Sur 0 926 -- 28
2020-09-05 18:00:00 29.9 18 Sur 31 Sur 0 926.2 -- 29
2020-09-05 17:00:00 31.1 19 Sur 30 Sur 0 926.3 -- 25
2020-09-05 16:00:00 30.9 12 Sur 27 Sur 0 926.8 -- 24
2020-09-05 15:00:00 29.9 13 Sudeste 24 Sur 0 927.6 -- 26
2020-09-05 14:00:00 29 12 Sur 23 Sur 0 928.3 -- 31
2020-09-05 13:00:00 26.1 9 Sur 18 Sur 0 928.8 -- 41
2020-09-05 12:00:00 24.1 5 Sur 17 Sur 0 929.3 -- 47
2020-09-05 11:00:00 22.6 7 Sur 13 Sur 0 929.6 -- 51
2020-09-05 10:00:00 20 5 Sur 8 Sur 0 929.6 -- 60
2020-09-05 09:00:00 18.3 4 Sur 6 Sur 0 929.6 -- 68
2020-09-05 08:00:00 16.6 3 Noroeste 5 Oeste 0 929.5 -- 77
2020-09-05 07:00:00 15.7 0 Calma 8 Noroeste 0 929.3 -- 79
2020-09-05 06:00:00 15.3 4 Norte 6 Norte 0 929.4 -- 81
2020-09-05 05:00:00 16.7 0 Calma 4 Noroeste 0 929.7 -- 74
2020-09-05 04:00:00 17 3 Noroeste 6 Noroeste 0 930 -- 73
2020-09-05 03:00:00 18 3 Sudoeste 11 Norte 0 930.4 -- 70
2020-09-05 02:00:00 17.6 8 Noroeste 11 Norte 0 930.7 -- 70
2020-09-05 01:00:00 18.4 9 Norte 12 Noroeste 0 930.9 -- 68
2020-09-05 00:00:00 19.1 6 Norte 10 Norte 0 931.1 -- 62
2020-09-04 23:00:00 20.4 5 Oeste 9 Noroeste 0 931.2 -- 55
2020-09-04 22:00:00 22.3 5 Sur 18 Norte 0 931 -- 44
2020-09-04 21:00:00 21.8 11 Norte 13 Norte 0 930.4 -- 42
2020-09-04 20:00:00 24.9 7 Sudeste 16 Sur 0 930.1 -- 33
2020-09-04 19:00:00 28.1 12 Sur 23 Sur 0 930 -- 28
2020-09-04 18:00:00 29.5 12 Sur 21 Sur 0 930.2 -- 24
2020-09-04 17:00:00 29.8 9 Sur 25 Sudeste 0 930.5 -- 24
2020-09-04 16:00:00 29.4 11 Sudeste 25 Sudoeste 0 931.2 -- 25
2020-09-04 15:00:00 29.1 10 Sudeste 23 Sur 0 932.1 -- 26
2020-09-04 14:00:00 27.8 8 Sudeste 23 Sur 0 932.7 -- 28
2020-09-04 13:00:00 26.8 12 Sur 22 Sudeste 0 933.4 -- 29
2020-09-04 12:00:00 24.7 7 Sur 15 Sur 0 933.7 -- 37
2020-09-04 11:00:00 21.8 5 Sur 11 Sur 0 933.9 -- 45
2020-09-04 10:00:00 19.2 5 Sur 9 Sur 0 933.7 -- 51
2020-09-04 09:00:00 17.9 4 Sur 5 Sur 0 933.4 -- 53
2020-09-04 08:00:00 15.2 3 Este 5 Norte 0 933 -- 63
2020-09-04 07:00:00 12.7 0 Calma 6 Noroeste 0 932.5 -- 67
2020-09-04 06:00:00 14.2 5 Norte 6 Norte 0 932.2 -- 61
2020-09-04 05:00:00 15.7 2 Sur 6 Norte 0 932.1 -- 58
2020-09-04 04:00:00 16.3 3 Sur 12 Norte 0 932.3 -- 55
2020-09-04 03:00:00 16.4 9 Norte 15 Noroeste 0 932.5 -- 53
2020-09-04 02:00:00 17.2 6 Oeste 12 Sur 0 932.9 -- 52
2020-09-04 01:00:00 18 7 Noroeste 10 Noroeste 0 932.6 -- 47
2020-09-04 00:00:00 18.1 6 Noroeste 14 Noroeste 0 932.6 -- 46
2020-09-03 23:00:00 18.9 7 Norte 12 Sur 0 932.4 -- 44
2020-09-03 22:00:00 19.1 9 Noroeste 14 Noroeste 0 932 -- 42
2020-09-03 21:00:00 20.3 9 Noroeste 16 Sudeste 0 931.3 -- 39
2020-09-03 20:00:00 22.9 7 Este 16 Sur 0 930.3 -- 33
2020-09-03 19:00:00 26.2 13 Sur 25 Sur 0 929.8 -- 30
2020-09-03 18:00:00 27.8 16 Sur 26 Sur 0 929.3 -- 28
2020-09-03 17:00:00 28.5 13 Sur 26 Sur 0 929.4 -- 27
2020-09-03 16:00:00 28.1 14 Sur 28 Sur 0 929.6 -- 27
2020-09-03 15:00:00 27.6 14 Sudeste 23 Sur 0 929.9 -- 27
2020-09-03 14:00:00 25.7 12 Sur 23 Sur 0 930.3 -- 31
2020-09-03 13:00:00 24.2 9 Sur 21 Sur 0 930.5 -- 34
2020-09-03 12:00:00 22.5 9 Sur 17 Sur 0 930.7 -- 40
2020-09-03 11:00:00 19.6 7 Sur 13 Sur 0 930.8 -- 49
2020-09-03 10:00:00 17.6 6 Sur 10 Sur 0 930.5 -- 57
2020-09-03 09:00:00 15.8 4 Sur 6 Sudeste 0 930.3 -- 61
2020-09-03 08:00:00 13.5 2 Sur 5 Este 0 929.8 -- 70
2020-09-03 07:00:00 13.1 0 Calma 5 Sur 0 929.2 -- 72
2020-09-03 06:00:00 13.4 2 Oeste 9 Noroeste 0 928.8 -- 69
2020-09-03 05:00:00 14.1 2 Sudoeste 5 Norte 0 928.7 -- 66
2020-09-03 04:00:00 14.8 5 Noroeste 12 Norte 0 928.6 -- 64
2020-09-03 03:00:00 14.9 8 Norte 13 Norte 0 928.7 -- 62
2020-09-03 02:00:00 15.3 5 Sudoeste 13 Noroeste 0 928.6 -- 61
2020-09-03 01:00:00 15.9 2 Nordeste 9 Norte 0 928.2 -- 57
2020-09-03 00:00:00 16.2 2 Noroeste 8 Noroeste 0 927.9 -- 56
2020-09-02 23:00:00 17.6 5 Oeste 10 Sudoeste 0 927.4 -- 52
2020-09-02 22:00:00 18.9 7 Sudoeste 15 Sudoeste 0 927 -- 47
2020-09-02 21:00:00 19.9 7 Sudoeste 23 Oeste 0 926.2 -- 43
2020-09-02 20:00:00 21.6 14 Oeste 26 Sudoeste 0 925.2 -- 39
2020-09-02 19:00:00 23.6 16 Sur 27 Sur 0 924.5 -- 35
2020-09-02 18:00:00 24.5 18 Sur 29 Sur 0 924.2 -- 33
2020-09-02 17:00:00 25.6 21 Sur 33 Sur 0 924 -- 32
2020-09-02 16:00:00 24.9 18 Sur 30 Sur 0 924 -- 33
2020-09-02 15:00:00 25.2 13 Sur 30 Sur 0 924.3 -- 31
2020-09-02 14:00:00 24.3 16 Sur 30 Sur 0 924.4 -- 33
2020-09-02 13:00:00 23.3 12 Sur 21 Sur 0 924.6 -- 32
2020-09-02 12:00:00 20.9 8 Sur 18 Sur 0 925.1 -- 42
2020-09-02 11:00:00 19.1 9 Sur 15 Sur 0 925.1 -- 50
2020-09-02 10:00:00 17.4 8 Sur 14 Sur 0 924.8 -- 54
2020-09-02 09:00:00 15.1 4 Sudoeste 6 Sur 0 924.4 -- 57
2020-09-02 08:00:00 13.7 0 Calma 6 Norte 0 924.3 -- 62
2020-09-02 07:00:00 12.3 6 Norte 12 Norte 0 924 -- 64
2020-09-02 06:00:00 12.9 6 Norte 12 Norte 0 923.6 -- 63
2020-09-02 05:00:00 12.9 6 Norte 14 Este 0 923.3 -- 62
2020-09-02 04:00:00 14.2 2 Norte 12 Nordeste 0 923.2 -- 55
2020-09-02 03:00:00 13.5 2 Nordeste 7 Norte 0 923.1 -- 55
2020-09-02 02:00:00 14.3 2 Nordeste 6 Norte 0 923.1 -- 51
2020-09-02 01:00:00 14.9 0 Calma 8 Norte 0 922.9 -- 48
2020-09-02 00:00:00 16.7 5 Norte 10 Norte 0 922.8 -- 41
2020-09-01 23:00:00 15.8 6 Norte 13 Noroeste 0 922.7 -- 43
2020-09-01 22:00:00 17.8 11 Norte 12 Norte 0 922.4 -- 37
2020-09-01 21:00:00 17.8 5 Norte 8 Norte 0 921.9 -- 37
2020-09-01 20:00:00 20.4 5 Sudoeste 12 Sur 0 921.5 -- 31
2020-09-01 19:00:00 21.5 11 Sudoeste 21 Sudoeste 0 921.1 -- 29
2020-09-01 18:00:00 22.9 10 Sudoeste 25 Sudoeste 0 921.3 -- 27
2020-09-01 17:00:00 22.4 12 Sur 17 Sur 0 921.3 -- 29
2020-09-01 16:00:00 22.6 7 Sur 17 Sudoeste 0 921.5 -- 25
2020-09-01 15:00:00 22.2 9 Sudoeste 18 Sudoeste 0 921.9 -- 26
2020-09-01 14:00:00 20.7 7 Sudeste 15 Sur 0 922.5 -- 29
2020-09-01 13:00:00 20.4 -- -- -- -- -- 922.9 -- 32
2020-09-01 12:00:00 20.8 -- -- -- -- 0 923.4 -- 31
2020-09-01 11:00:00 16.6 -- -- -- -- 0 923.8 -- 49
2020-09-01 10:00:00 16 -- -- -- -- 0 923.7 -- 50
2020-09-01 09:00:00 13.7 -- -- -- -- 0 923.9 -- 51
2020-09-01 08:00:00 12 -- -- -- -- 0 923.8 -- 52
2020-09-01 07:00:00 12 -- -- -- -- 0 923.5 -- 51
2020-09-01 06:00:00 12.4 -- -- -- -- 0 923.5 -- 48
2020-09-01 05:00:00 13.4 -- -- -- -- 0 924.2 -- 45
2020-09-01 04:00:00 13.1 -- -- -- -- 0 924.7 -- 47
2020-09-01 03:00:00 14 -- -- -- -- 0 925.1 -- 41
2020-09-01 02:00:00 15 -- -- -- -- 0 925.3 -- 41
2020-09-01 01:00:00 15 -- -- -- -- 0 925.6 -- 41
2020-09-01 00:00:00 15.6 -- -- -- -- 0 925.4 -- 37
2020-08-31 23:00:00 15.8 -- -- -- -- 0 925.1 -- 37
2020-08-31 22:00:00 16.5 -- -- -- -- 0 925.1 -- 33
2020-08-31 21:00:00 18.2 -- -- -- -- 0 924.7 -- 29
2020-08-31 20:00:00 19.7 -- -- -- -- 0 924.3 -- 28
2020-08-31 19:00:00 22.9 -- -- -- -- 0 924 -- 21
2020-08-31 18:00:00 23.7 -- -- -- -- 0 924.2 -- 22
2020-08-31 17:00:00 23.7 -- -- -- -- 0 924.4 -- 22
2020-08-31 16:00:00 24 -- -- -- -- 0 924.8 -- 25
2020-08-31 15:00:00 23.7 -- -- -- -- 0 925.3 -- 27
2020-08-31 14:00:00 23.1 -- -- -- -- 0 925.8 -- 29
2020-08-31 13:00:00 21 -- -- -- -- 0 926.5 -- 35
2020-08-31 12:00:00 19.1 -- -- -- -- 0 926.8 -- 44
2020-08-31 11:00:00 16.1 -- -- -- -- 0 926.8 -- 55
2020-08-31 10:00:00 14.3 -- -- -- -- 0 926.6 -- 65
2020-08-31 09:00:00 11.7 -- -- -- -- 0 926.2 -- 74
2020-08-31 08:00:00 10.4 -- -- -- -- 0 926 -- 71
2020-08-31 07:00:00 9.2 -- -- -- -- 0 925.6 -- 77
2020-08-31 06:00:00 8.9 -- -- -- -- 0 925.5 -- 79
2020-08-31 05:00:00 9.8 -- -- -- -- 0 925.6 -- 71
2020-08-31 04:00:00 10.4 -- -- -- -- 0 925.8 -- 75
2020-08-31 03:00:00 10.4 -- -- -- -- 0 925.8 -- 77
2020-08-31 02:00:00 10.7 -- -- -- -- 0 926 -- 78
2020-08-31 01:00:00 11.9 -- -- -- -- 0 925.6 -- 61
2020-08-31 00:00:00 11.5 -- -- -- -- 0 925.4 -- 66
2020-08-30 23:00:00 12.5 -- -- -- -- 0 925.2 -- 68
2020-08-30 22:00:00 12.4 -- -- -- -- 0 924.5 -- 66
2020-08-30 21:00:00 13.6 -- -- -- -- 0.2 923.7 -- 57
2020-08-30 20:00:00 14 -- -- -- -- 0 923.3 -- 59
2020-08-30 19:00:00 16.2 -- -- -- -- 0 921.8 -- 43
2020-08-30 18:00:00 19.8 -- -- -- -- 0 920.8 -- 37
2020-08-30 17:00:00 19.6 -- -- -- -- 0 920.6 -- 36
2020-08-30 16:00:00 21.9 -- -- -- -- 0 920.7 -- 32
2020-08-30 15:00:00 23.6 -- -- -- -- 0 920.7 -- 26
2020-08-30 14:00:00 21.9 -- -- -- -- 0 920.9 -- 26
2020-08-30 13:00:00 20.7 -- -- -- -- 0 921.1 -- 29
2020-08-30 12:00:00 19.1 -- -- -- -- 0 921.3 -- 34
2020-08-30 11:00:00 16.8 -- -- -- -- 0 921 -- 46
2020-08-30 10:00:00 14.5 -- -- -- -- 0 920.4 -- 60
2020-08-30 09:00:00 13 -- -- -- -- 0 919.4 -- 63
2020-08-30 08:00:00 10.4 -- -- -- -- 0 919 -- 73
2020-08-30 07:00:00 9.3 -- -- -- -- 0 918.5 -- 73
2020-08-30 06:00:00 10 -- -- -- -- 0 918.2 -- 70
2020-08-30 05:00:00 10.3 -- -- -- -- 0 917.9 -- 67
2020-08-30 04:00:00 10.2 -- -- -- -- 0 917.5 -- 66
2020-08-30 03:00:00 11 -- -- -- -- 0 917 -- 64
2020-08-30 02:00:00 12.5 -- -- -- -- 0 917 -- 58
2020-08-30 01:00:00 12.3 -- -- -- -- 0 916.7 -- 60
2020-08-30 00:00:00 13.4 -- -- -- -- 0 916.3 -- 56
2020-08-29 23:00:00 14.5 -- -- -- -- 0 915.8 -- 50
2020-08-29 22:00:00 14.5 -- -- -- -- 0 914.9 -- 55
2020-08-29 21:00:00 14.2 -- -- -- -- 0 914.3 -- 60
2020-08-29 20:00:00 16.7 -- -- -- -- 0 913.3 -- 42
2020-08-29 19:00:00 17.6 -- -- -- -- 0 913.1 -- 43
2020-08-29 18:00:00 20.2 -- -- -- -- 0 912.7 -- 38
2020-08-29 17:00:00 22.9 -- -- -- -- 0 912.5 -- 28
2020-08-29 16:00:00 23.5 -- -- -- -- 0 912.8 -- 39
2020-08-29 15:00:00 21.3 -- -- -- -- 0 913.2 -- 47
2020-08-29 14:00:00 22.1 -- -- -- -- 0 913.2 -- 48
2020-08-29 13:00:00 20.1 -- -- -- -- 0 913.8 -- 58
2020-08-29 12:00:00 16.7 -- -- -- -- 0 914.2 -- 70
2020-08-29 11:00:00 17.3 -- -- -- -- 0 914 -- 73
2020-08-29 10:00:00 15.7 -- -- -- -- 0 913.8 -- 85
2020-08-29 09:00:00 14.3 -- -- -- -- 0 913.7 -- 91
2020-08-29 08:00:00 14 -- -- -- -- 0 913.7 -- 91
2020-08-29 07:00:00 14 -- -- -- -- 0 913.5 -- 89
2020-08-29 06:00:00 14 -- -- -- -- 0.4 913.5 -- 89
2020-08-29 05:00:00 14.9 -- -- -- -- 0 913.6 -- 88
2020-08-29 04:00:00 16.2 -- -- -- -- 0 913.7 -- 88
2020-08-29 03:00:00 17.3 -- -- -- -- 0 914 -- 86
2020-08-29 02:00:00 17.6 -- -- -- -- 0 914.1 -- 88
2020-08-29 01:00:00 18 -- -- -- -- 0 914.5 -- 87
2020-08-29 00:00:00 18.4 -- -- -- -- 0.6 914.1 -- 84
2020-08-28 23:00:00 19.8 -- -- -- -- 0 914.3 -- 69
2020-08-28 22:00:00 19.9 -- -- -- -- 0 914.3 -- 74
2020-08-28 21:00:00 23.4 -- -- -- -- 0 914 -- 62
2020-08-28 20:00:00 23.9 -- -- -- -- 0 913.9 -- 59
2020-08-28 19:00:00 25.9 -- -- -- -- 0 914.3 -- 53
2020-08-28 18:00:00 25.7 -- -- -- -- 0 914.8 -- 53
2020-08-28 17:00:00 25.5 -- -- -- -- 0 915.3 -- 56
2020-08-28 16:00:00 26.9 -- -- -- -- 0 915.9 -- 50
2020-08-28 15:00:00 25.9 -- -- -- -- 0 916.6 -- 52
2020-08-28 14:00:00 25.6 -- -- -- -- 0 917.6 -- 52
2020-08-28 13:00:00 25.1 -- -- -- -- 0 918.3 -- 54
2020-08-28 12:00:00 25.2 -- -- -- -- 0 918.8 -- 53
2020-08-28 11:00:00 24.6 -- -- -- -- 0 919.1 -- 56
2020-08-28 10:00:00 24.2 -- -- -- -- 0 919.2 -- 60
2020-08-28 09:00:00 23.7 -- -- -- -- 0 919.9 -- 62
2020-08-28 08:00:00 21.4 -- -- -- -- 0 920.3 -- 70
2020-08-28 07:00:00 20 -- -- -- -- 0 920.2 -- 80
2020-08-28 06:00:00 20.6 -- -- -- -- 0 920.4 -- 80
2020-08-28 05:00:00 20.8 -- -- -- -- 0 920.8 -- 78
2020-08-28 04:00:00 21.8 -- -- -- -- 0 921.5 -- 75
2020-08-28 03:00:00 21.8 -- -- -- -- 0 922.4 -- 75
2020-08-28 02:00:00 22.3 -- -- -- -- 0 923.3 -- 72
2020-08-28 01:00:00 22.6 -- -- -- -- 0 923.8 -- 67
2020-08-28 00:00:00 23.3 -- -- -- -- 0 923.6 -- 53
2020-08-27 23:00:00 23.2 -- -- -- -- 0 923.2 -- 49
2020-08-27 22:00:00 24.1 -- -- -- -- 0 923.5 -- 47
2020-08-27 21:00:00 26.7 -- -- -- -- 0 923.4 -- 40
2020-08-27 20:00:00 28.6 -- -- -- -- 0 923.2 -- 36
2020-08-27 19:00:00 30.9 -- -- -- -- 0 923.1 -- 32
2020-08-27 18:00:00 32.5 -- -- -- -- 0 923.4 -- 29
2020-08-27 17:00:00 32.6 -- -- -- -- 0 923.8 -- 30
2020-08-27 16:00:00 32.6 -- -- -- -- 0 924.3 -- 33
2020-08-27 15:00:00 33.5 -- -- -- -- 0 925 -- 31
2020-08-27 14:00:00 32.9 -- -- -- -- 0 925.5 -- 32
2020-08-27 13:00:00 30.7 -- -- -- -- 0 926.4 -- 39
2020-08-27 12:00:00 28.7 -- -- -- -- -- 927 -- 42
2020-08-27 11:00:00 26.6 6 Sur 12 Sur 0 927.4 -- 46
2020-08-27 10:00:00 24.3 5 Sur 8 Sur 0 927.4 -- 56
2020-08-27 09:00:00 22.8 3 Sur 5 Sudoeste 0 927.4 -- 60
2020-08-27 08:00:00 20.9 2 Sur 5 Norte 0 927.4 -- 70
2020-08-27 07:00:00 19.2 4 Nordeste 8 Norte 0 927.3 -- 77
2020-08-27 06:00:00 20.6 4 Sudoeste 8 Noroeste 0 927.1 -- 73
2020-08-27 05:00:00 20.5 6 Noroeste 8 Noroeste 0 927.4 -- 74
2020-08-27 04:00:00 21.6 4 Sur 10 Norte 0 927.7 -- 65
2020-08-27 03:00:00 21.8 6 Noroeste 9 Noroeste 0 928 -- 68
2020-08-27 02:00:00 23.4 0 Calma 6 Noroeste 0 928.2 -- 58
2020-08-27 01:00:00 22.6 4 Noroeste 9 Oeste 0 928.4 -- 60
2020-08-27 00:00:00 24.5 4 Sudoeste 13 Noroeste 0 928.3 -- 48
2020-08-26 23:00:00 23.1 10 Noroeste 11 Noroeste 0 928 -- 49
2020-08-26 22:00:00 25.2 4 Sudoeste 19 Oeste 0 927.7 -- 47
2020-08-26 21:00:00 27.2 11 Oeste 27 Oeste 0 926.8 -- 42
2020-08-26 20:00:00 29.7 13 Oeste 25 Sudoeste 0 926.3 -- 34
2020-08-26 19:00:00 32.1 15 Sudoeste 28 Sudoeste 0 926.1 -- 28
2020-08-26 18:00:00 33.2 20 Sur 32 Sudoeste 0 926.3 -- 25
2020-08-26 17:00:00 33.9 18 Sur 33 Sur 0 926.7 -- 27
2020-08-26 16:00:00 33.3 14 Sur 30 Sur 0 926.9 -- 28
2020-08-26 15:00:00 33.6 14 Sur 27 Sur 0 927.5 -- 26
2020-08-26 14:00:00 -- -- -- -- -- -- -- -- --
2020-08-26 13:00:00 -- -- -- -- -- -- -- -- --
2020-08-26 12:00:00 -- -- -- -- -- -- -- -- --
2020-08-26 11:00:00 -- -- -- -- -- -- -- -- --
2020-08-26 10:00:00 -- -- -- -- -- -- -- -- --
2020-08-26 09:00:00 -- -- -- -- -- -- -- -- --
2020-08-26 08:00:00 -- -- -- -- -- -- -- -- --
2020-08-26 07:00:00 -- -- -- -- -- -- -- -- --
2020-08-26 06:00:00 -- -- -- -- -- -- -- -- --
2020-08-26 05:00:00 -- -- -- -- -- -- -- -- --
2020-08-26 04:00:00 -- -- -- -- -- -- -- -- --
2020-08-26 03:00:00 -- -- -- -- -- -- -- -- --
2020-08-26 02:00:00 -- -- -- -- -- -- -- -- --
2020-08-26 01:00:00 -- -- -- -- -- -- -- -- --
2020-08-26 00:00:00 -- -- -- -- -- -- -- -- --
2020-08-25 23:00:00 -- -- -- -- -- -- -- -- --
2020-08-25 22:00:00 -- -- -- -- -- -- -- -- --
2020-08-25 21:00:00 -- -- -- -- -- -- -- -- --
2020-08-25 20:00:00 -- -- -- -- -- -- -- -- --
2020-08-25 19:00:00 -- -- -- -- -- -- -- -- --
2020-08-25 18:00:00 -- -- -- -- -- -- -- -- --
2020-08-25 17:00:00 -- -- -- -- -- -- -- -- --
2020-08-25 16:00:00 -- -- -- -- -- -- -- -- --
2020-08-25 15:00:00 -- -- -- -- -- -- -- -- --
2020-08-25 14:00:00 -- -- -- -- -- -- -- -- --
2020-08-25 13:00:00 -- -- -- -- -- -- -- -- --
2020-08-25 12:00:00 -- -- -- -- -- -- -- -- --
2020-08-25 11:00:00 -- -- -- -- -- -- -- -- --
2020-08-25 10:00:00 -- -- -- -- -- -- -- -- --
2020-08-25 09:00:00 -- -- -- -- -- -- -- -- --
2020-08-25 08:00:00 -- -- -- -- -- -- -- -- --
2020-08-25 07:00:00 -- -- -- -- -- -- -- -- --
2020-08-25 06:00:00 -- -- -- -- -- -- -- -- --
2020-08-25 05:00:00 -- -- -- -- -- -- -- -- --
2020-08-25 04:00:00 -- -- -- -- -- -- -- -- --
2020-08-25 03:00:00 -- -- -- -- -- -- -- -- --
2020-08-25 02:00:00 -- -- -- -- -- -- -- -- --
2020-08-25 01:00:00 -- -- -- -- -- -- -- -- --
2020-08-25 00:00:00 -- -- -- -- -- -- -- -- --
2020-08-24 23:00:00 -- -- -- -- -- -- -- -- --
2020-08-24 22:00:00 -- -- -- -- -- -- -- -- --
2020-08-24 21:00:00 -- -- -- -- -- -- -- -- --
2020-08-24 20:00:00 -- -- -- -- -- -- -- -- --
2020-08-24 19:00:00 -- -- -- -- -- -- -- -- --
2020-08-24 18:00:00 -- -- -- -- -- -- -- -- --
2020-08-24 17:00:00 -- -- -- -- -- -- -- -- --
2020-08-24 16:00:00 -- -- -- -- -- -- -- -- --
2020-08-24 15:00:00 -- -- -- -- -- -- -- -- --
2020-08-24 14:00:00 -- -- -- -- -- -- -- -- --
2020-08-24 13:00:00 -- -- -- -- -- -- -- -- --
2020-08-24 12:00:00 -- -- -- -- -- -- -- -- --
2020-08-24 11:00:00 -- -- -- -- -- -- -- -- --
2020-08-24 10:00:00 -- -- -- -- -- -- -- -- --
2020-08-24 09:00:00 -- -- -- -- -- -- -- -- --
2020-08-24 08:00:00 -- -- -- -- -- -- -- -- --
2020-08-24 07:00:00 -- -- -- -- -- -- -- -- --
2020-08-24 06:00:00 -- -- -- -- -- -- -- -- --
2020-08-24 05:00:00 -- -- -- -- -- -- -- -- --
2020-08-24 04:00:00 -- -- -- -- -- -- -- -- --
2020-08-24 03:00:00 -- -- -- -- -- -- -- -- --
2020-08-24 02:00:00 -- -- -- -- -- -- -- -- --
2020-08-24 01:00:00 -- -- -- -- -- -- -- -- --
2020-08-24 00:00:00 -- -- -- -- -- -- -- -- --